»·PEaware :: N864XP KSMX-KDAG

N864XP :: KSMX-KDAG

FLIGHT INFORMATION

Flight Status: Arrived
Operator: Privately registered:
United States
More flights under this callsign
Pilot: Greg L. (17564)
Aircraft: GATES LEARJET LEARJET 25
(LJ25)
More flights by this aircraft type
Origin: KSMX Santa Maria Pub/Capt Hancock
United States
Destination: KDAG Barstow-Daggett
United States
More flights between these airports :: More routes between these airports
Route: AFOXY V27 GVO V12 NULMN
File this flight plan on PilotEdge
Remarks:
Altitude:
(Current/Filed)
13,500ft
Speed:
(Current/Filed)
240kts
Departed: 05-Jan-18 01:12 PM
Arrived: 05-Jan-18 01:59 PM
Distance/Time
Traveled:
181nm/0:47
Distance/Time
To Go:
Arrived

Flight Plot

Page will automatically refresh every two minutes.

Flight plan parsing failed; only flown route is shown


Map Options




Map Legend


Flown Route
Filed Route
Departure Airport
Arrival Airport
Navaid (VOR, NDB)
Fix

Horizontal Profiles

Position Reports

Time Latitude Longitude Heading Altitude Ground
Speed
05-Jan-18 12:56 34.898520 -120.448214 48 227ft 0kts
05-Jan-18 12:57 34.898520 -120.448214 48 227ft 0kts
05-Jan-18 12:58 34.898520 -120.448214 48 227ft 0kts
05-Jan-18 12:59 34.898520 -120.448214 48 227ft 0kts
05-Jan-18 13:00 34.898520 -120.448214 48 227ft 0kts
05-Jan-18 13:01 34.898520 -120.448214 48 227ft 0kts
05-Jan-18 13:02 34.898520 -120.448214 48 227ft 0kts
05-Jan-18 13:03 34.898520 -120.448214 48 227ft 0kts
05-Jan-18 13:04 34.898520 -120.448214 48 227ft 0kts
05-Jan-18 13:05 34.898520 -120.448214 48 227ft 0kts
05-Jan-18 13:06 34.898520 -120.448214 48 227ft 0kts
05-Jan-18 13:07 34.898521 -120.448213 48 227ft 0kts
05-Jan-18 13:08 34.898521 -120.448212 48 227ft 0kts
05-Jan-18 13:09 34.898522 -120.448211 48 227ft 0kts
05-Jan-18 13:10 34.898523 -120.448210 48 227ft 0kts
05-Jan-18 13:11 34.898533 -120.448162 89 227ft 3kts
05-Jan-18 13:12 34.897193 -120.448652 218 227ft 6kts
05-Jan-18 13:13 34.894945 -120.446410 135 227ft 7kts
05-Jan-18 13:14 34.893679 -120.445703 182 227ft 3kts
05-Jan-18 13:15 34.893615 -120.445707 182 227ft 0kts
05-Jan-18 13:16 34.893582 -120.445709 182 227ft 3kts
05-Jan-18 13:17 34.893057 -120.446164 311 227ft 11kts
05-Jan-18 13:18 34.923678 -120.472595 352 1399ft 264kts
05-Jan-18 13:19 34.962819 -120.408487 78 1927ft 251kts
05-Jan-18 13:20 34.982391 -120.329308 80 4679ft 243kts
05-Jan-18 13:21 34.965025 -120.248041 130 6049ft 264kts
05-Jan-18 13:22 34.894181 -120.225198 172 8094ft 277kts
05-Jan-18 13:23 34.816939 -120.208595 172 10817ft 288kts
05-Jan-18 13:24 34.736424 -120.190634 174 13442ft 317kts
05-Jan-18 13:25 34.640090 -120.169102 173 13454ft 350kts
05-Jan-18 13:26 34.556245 -120.110134 136 13458ft 364kts
05-Jan-18 13:27 34.525529 -119.993621 94 13462ft 378kts
05-Jan-18 13:28 34.516531 -119.866170 97 13450ft 379kts
05-Jan-18 13:29 34.511661 -119.738784 85 13451ft 381kts
05-Jan-18 13:30 34.521986 -119.610584 85 13453ft 381kts
05-Jan-18 13:31 34.531814 -119.482702 85 13458ft 381kts
05-Jan-18 13:32 34.541513 -119.354677 86 13462ft 381kts
05-Jan-18 13:33 34.551089 -119.226306 86 13470ft 381kts
05-Jan-18 13:34 34.560460 -119.098188 86 13470ft 381kts
05-Jan-18 13:35 34.569706 -118.970135 86 13483ft 381kts
05-Jan-18 13:36 34.578858 -118.841487 86 13496ft 381kts
05-Jan-18 13:37 34.587877 -118.713286 86 13505ft 382kts
05-Jan-18 13:38 34.596749 -118.584578 86 13507ft 382kts
05-Jan-18 13:39 34.605524 -118.456221 86 13491ft 382kts
05-Jan-18 13:40 34.614123 -118.327922 86 13468ft 380kts
05-Jan-18 13:41 34.621822 -118.211593 86 13275ft 331kts
05-Jan-18 13:42 34.629023 -118.100889 86 12189ft 328kts
05-Jan-18 13:43 34.638540 -117.991416 81 11089ft 320kts
05-Jan-18 13:44 34.650743 -117.885848 82 9989ft 311kts
05-Jan-18 13:45 34.661958 -117.783370 82 8890ft 301kts
05-Jan-18 13:46 34.672703 -117.683503 82 7787ft 293kts
05-Jan-18 13:47 34.683033 -117.586507 82 6688ft 286kts
05-Jan-18 13:48 34.693024 -117.491968 82 5588ft 279kts
05-Jan-18 13:49 34.702737 -117.399594 82 4980ft 272kts
05-Jan-18 13:50 34.717779 -117.309795 71 4979ft 272kts
05-Jan-18 13:51 34.741259 -117.221946 72 4978ft 273kts
05-Jan-18 13:52 34.763290 -117.136071 72 4977ft 274kts
05-Jan-18 13:53 34.785933 -117.047400 72 4974ft 275kts
05-Jan-18 13:54 34.808574 -116.958341 72 4968ft 274kts
05-Jan-18 13:55 34.831042 -116.869671 73 4960ft 274kts
05-Jan-18 13:56 34.852635 -116.784217 73 4921ft 220kts
05-Jan-18 13:57 34.868741 -116.720214 73 4954ft 195kts
05-Jan-18 13:58 34.884688 -116.656708 73 4955ft 196kts
05-Jan-18 13:59 34.901079 -116.592958 65 4957ft 196kts
05-Jan-18 14:00 34.947820 -116.577543 326 4965ft 194kts
05-Jan-18 14:01 34.959351 -116.634103 236 4960ft 182kts
05-Jan-18 14:02 34.927778 -116.681018 229 3985ft 172kts
05-Jan-18 14:03 34.897249 -116.726084 229 3058ft 172kts
05-Jan-18 14:04 34.870718 -116.765157 229 2175ft 119kts
05-Jan-18 14:05 34.854542 -116.789010 229 1930ft 10kts
05-Jan-18 14:06 34.854979 -116.790744 322 1930ft 7kts
05-Jan-18 14:07 34.855972 -116.790539 124 1930ft 0kts
05-Jan-18 14:08 34.855972 -116.790539 124 1930ft 0kts
05-Jan-18 14:09 34.855972 -116.790539 124 1930ft 0kts
05-Jan-18 14:10 34.855972 -116.790539 124 1930ft 0kts
05-Jan-18 14:11 34.855972 -116.790539 124 1930ft 0kts
05-Jan-18 14:12 34.855972 -116.790539 124 1930ft 0kts
05-Jan-18 14:13 34.855972 -116.790539 124 1930ft 0kts
05-Jan-18 14:14 34.855972 -116.790539 124 1930ft 0kts
05-Jan-18 14:15 34.855972 -116.790539 124 1930ft 0kts

Navigation Log

Ident Type
Flight plan parsing failed, navigation log unavailable